Time;durP1;ratioP1;P1;durP2;ratioP2;P2;SDS_P1;SDS_P2;PMS_P1;PMS_P2;Temp;Humidity;BMP_temperature;BMP_pressure;BME280_temperature;BME280_humidity;BME280_pressure;Samples;Min_cycle;Max_cycle;Signal;HPM_P1;HPM_P2
2021/10/28 00:12:20;;;;;;;25.35;17.38;;;;;;;;;;4899086;29;20052;-88
2021/10/28 00:14:53;;;;;;;26.65;18.42;;;;;;;;;;4882103;29;20088;-89
2021/10/28 00:17:24;;;;;;;26.27;18.27;;;;;;;;;;4897829;29;20061;-89
2021/10/28 00:19:50;;;;;;;29.90;19.52;;;;;;;;;;4897464;29;20494;-89
2021/10/28 00:22:16;;;;;;;25.83;18.30;;;;;;;;;;4897119;29;20053;-89
2021/10/28 00:24:42;;;;;;;28.50;19.60;;;;;;;;;;4897538;29;20029;-88
2021/10/28 00:27:09;;;;;;;30.77;19.90;;;;;;;;;;4897785;29;20064;-89
2021/10/28 00:29:35;;;;;;;26.52;19.40;;;;;;;;;;4897188;29;20501;-89
2021/10/28 00:32:03;;;;;;;25.77;18.02;;;;;;;;;;4881692;29;20043;-89
2021/10/28 00:34:30;;;;;;;27.50;19.40;;;;;;;;;;4897784;29;20467;-89
2021/10/28 00:36:56;;;;;;;26.88;18.80;;;;;;;;;;4897509;29;20399;-89
2021/10/28 00:39:22;;;;;;;28.33;19.55;;;;;;;;;;4898570;29;20035;-89
2021/10/28 00:41:49;;;;;;;27.83;18.92;;;;;;;;;;4897121;29;20401;-89
2021/10/28 00:44:15;;;;;;;26.25;17.90;;;;;;;;;;4897385;29;20455;-89
2021/10/28 00:46:43;;;;;;;26.27;18.27;;;;;;;;;;4897234;29;20087;-89
2021/10/28 00:49:10;;;;;;;25.15;18.55;;;;;;;;;;4897228;29;20028;-89
2021/10/28 00:51:37;;;;;;;27.73;18.33;;;;;;;;;;4896856;29;20171;-89
2021/10/28 00:54:05;;;;;;;29.15;19.42;;;;;;;;;;4897058;29;20538;-89
2021/10/28 00:56:32;;;;;;;28.10;18.90;;;;;;;;;;4897179;29;20091;-89
2021/10/28 00:59:00;;;;;;;28.63;18.95;;;;;;;;;;4899322;29;20035;-89
2021/10/28 01:01:26;;;;;;;27.67;18.98;;;;;;;;;;4901097;29;20038;-89
2021/10/28 01:03:53;;;;;;;24.88;17.38;;;;;;;;;;4901079;29;20028;-89
2021/10/28 01:06:19;;;;;;;28.90;18.63;;;;;;;;;;4897508;29;20068;-89
2021/10/28 01:08:46;;;;;;;24.52;17.17;;;;;;;;;;4898401;29;20029;-89
2021/10/28 01:11:12;;;;;;;25.63;17.88;;;;;;;;;;4897091;29;20489;-89
2021/10/28 01:13:39;;;;;;;27.42;18.45;;;;;;;;;;4897043;29;20131;-89
2021/10/28 01:16:06;;;;;;;30.08;19.30;;;;;;;;;;4897215;29;20036;-89
2021/10/28 01:18:34;;;;;;;26.30;18.90;;;;;;;;;;4897951;29;20431;-89
2021/10/28 01:21:00;;;;;;;26.33;18.58;;;;;;;;;;4901813;29;20112;-89
2021/10/28 01:23:26;;;;;;;26.67;17.75;;;;;;;;;;4904237;29;20145;-87
2021/10/28 01:26:06;;;;;;;24.35;17.75;;;;;;;;;;4895901;29;20029;-89
2021/10/28 01:28:33;;;;;;;28.95;18.40;;;;;;;;;;4882349;29;20056;-89
2021/10/28 01:31:00;;;;;;;26.15;17.92;;;;;;;;;;4882049;29;20033;-89
2021/10/28 01:33:27;;;;;;;27.75;18.27;;;;;;;;;;4897414;29;20067;-89
2021/10/28 01:35:54;;;;;;;28.00;18.25;;;;;;;;;;4897227;29;20036;-89
2021/10/28 01:38:20;;;;;;;29.50;18.55;;;;;;;;;;4896659;29;20503;-89
2021/10/28 01:40:57;;;;;;;29.92;18.85;;;;;;;;;;4896852;29;20096;-89
2021/10/28 01:43:24;;;;;;;27.58;19.10;;;;;;;;;;4881170;29;20115;-89
2021/10/28 01:45:50;;;;;;;28.13;18.13;;;;;;;;;;4881232;29;20483;-89
2021/10/28 01:48:18;;;;;;;24.83;17.83;;;;;;;;;;4880987;29;20075;-89
2021/10/28 01:50:44;;;;;;;25.92;18.35;;;;;;;;;;4880845;29;20037;-89
2021/10/28 01:53:10;;;;;;;23.83;16.83;;;;;;;;;;4896722;29;20028;-89
2021/10/28 01:55:36;;;;;;;25.88;17.73;;;;;;;;;;4896622;29;20036;-89
2021/10/28 01:58:03;;;;;;;28.13;17.90;;;;;;;;;;4897677;29;20056;-89
2021/10/28 02:00:29;;;;;;;26.13;17.30;;;;;;;;;;4896558;29;20100;-89
2021/10/28 02:02:55;;;;;;;24.63;17.40;;;;;;;;;;4896528;29;20056;-89
2021/10/28 02:05:22;;;;;;;24.70;16.77;;;;;;;;;;4896566;29;20051;-89
2021/10/28 02:07:49;;;;;;;24.52;16.30;;;;;;;;;;4897948;29;20031;-89
2021/10/28 02:10:15;;;;;;;25.40;17.55;;;;;;;;;;4896173;29;20112;-89
2021/10/28 02:12:41;;;;;;;23.52;16.25;;;;;;;;;;4897908;29;20025;-89
2021/10/28 02:15:09;;;;;;;27.05;17.60;;;;;;;;;;4885103;29;20394;-89
2021/10/28 02:17:35;;;;;;;25.48;15.93;;;;;;;;;;4884333;29;20040;-89
2021/10/28 02:20:02;;;;;;;26.65;16.75;;;;;;;;;;4901370;29;20031;-89
2021/10/28 02:22:28;;;;;;;23.58;15.10;;;;;;;;;;4883858;29;20044;-89
2021/10/28 02:24:54;;;;;;;25.67;17.55;;;;;;;;;;4899960;29;20471;-89
2021/10/28 02:27:20;;;;;;;25.05;16.80;;;;;;;;;;4900988;29;20491;-89
2021/10/28 02:29:46;;;;;;;23.90;16.73;;;;;;;;;;4899738;29;20033;-89
2021/10/28 02:32:12;;;;;;;26.15;17.58;;;;;;;;;;4899455;29;20028;-89
2021/10/28 02:34:40;;;;;;;24.63;16.60;;;;;;;;;;4884113;29;20021;-89
2021/10/28 02:37:06;;;;;;;27.20;17.20;;;;;;;;;;4883893;29;20112;-89
2021/10/28 02:39:32;;;;;;;23.60;15.88;;;;;;;;;;4884102;29;20029;-89
2021/10/28 02:41:59;;;;;;;24.48;16.88;;;;;;;;;;4883584;29;20033;-89
2021/10/28 02:44:25;;;;;;;24.08;16.98;;;;;;;;;;4883960;29;20024;-89
2021/10/28 02:46:51;;;;;;;28.10;17.90;;;;;;;;;;4900614;29;20029;-89
2021/10/28 02:49:17;;;;;;;26.45;18.52;;;;;;;;;;4883881;29;20032;-89
2021/10/28 02:51:48;;;;;;;24.65;16.88;;;;;;;;;;4900516;29;20034;-89
2021/10/28 02:54:14;;;;;;;23.73;16.25;;;;;;;;;;4903878;29;20033;-88
2021/10/28 02:56:41;;;;;;;21.70;16.15;;;;;;;;;;4899815;29;20501;-89
2021/10/28 02:59:07;;;;;;;23.63;16.65;;;;;;;;;;4901473;29;20033;-89
2021/10/28 03:01:33;;;;;;;22.90;16.23;;;;;;;;;;4898969;29;20484;-89
2021/10/28 03:03:59;;;;;;;21.95;14.50;;;;;;;;;;4900057;29;20032;-89
2021/10/28 03:06:25;;;;;;;22.77;16.35;;;;;;;;;;4899165;29;20043;-89
2021/10/28 03:08:51;;;;;;;22.10;15.57;;;;;;;;;;4899363;29;20028;-89
2021/10/28 03:11:17;;;;;;;22.65;15.15;;;;;;;;;;4899153;29;20122;-89
2021/10/28 03:13:46;;;;;;;19.48;14.98;;;;;;;;;;4899174;29;20036;-89
2021/10/28 03:16:26;;;;;;;20.52;14.15;;;;;;;;;;4885258;29;20056;-89
2021/10/28 03:27:06;;;;;;;23.05;16.77;;;;;;;;;;4923066;29;20069;-89
2021/10/28 03:29:32;;;;;;;25.73;17.77;;;;;;;;;;4907164;29;20012;-89
2021/10/28 03:31:58;;;;;;;24.10;16.35;;;;;;;;;;4905595;29;20512;-89
2021/10/28 03:34:25;;;;;;;27.48;17.98;;;;;;;;;;4901313;29;20021;-88
2021/10/28 03:37:16;;;;;;;26.90;17.20;;;;;;;;;;4886583;29;20029;-89
2021/10/28 04:31:11;;;;;;;32.10;21.23;;;;;;;;;;4899323;29;20156;-90
2021/10/28 04:33:42;;;;;;;35.03;21.85;;;;;;;;;;4881404;29;20511;-90
2021/10/28 04:36:08;;;;;;;35.22;21.80;;;;;;;;;;4899281;29;20048;-90
2021/10/28 04:38:34;;;;;;;35.40;22.52;;;;;;;;;;4882895;29;20514;-92
2021/10/28 04:41:00;;;;;;;36.15;22.63;;;;;;;;;;4883279;29;20068;-90
2021/10/28 04:43:26;;;;;;;39.28;23.63;;;;;;;;;;4882514;29;20028;-90
2021/10/28 04:45:52;;;;;;;36.85;21.83;;;;;;;;;;4882046;29;20071;-90
2021/10/28 04:48:18;;;;;;;34.92;21.35;;;;;;;;;;4882060;29;20041;-90
2021/10/28 04:50:44;;;;;;;37.83;23.02;;;;;;;;;;4899219;29;20376;-90
2021/10/28 04:53:11;;;;;;;35.10;23.25;;;;;;;;;;4898863;29;20446;-90
2021/10/28 04:55:37;;;;;;;43.50;23.42;;;;;;;;;;4882063;29;20064;-90
2021/10/28 04:58:06;;;;;;;42.75;25.05;;;;;;;;;;4898630;29;20033;-89
2021/10/28 05:00:32;;;;;;;42.50;26.65;;;;;;;;;;4898318;29;20040;-90
2021/10/28 05:02:58;;;;;;;37.85;23.35;;;;;;;;;;4898588;29;20071;-90
2021/10/28 05:05:24;;;;;;;37.42;24.25;;;;;;;;;;4881758;29;20063;-89
2021/10/28 05:07:50;;;;;;;37.92;23.05;;;;;;;;;;4898447;29;20475;-90
2021/10/28 05:10:16;;;;;;;33.60;21.95;;;;;;;;;;4881698;29;20029;-89
2021/10/28 05:12:43;;;;;;;33.65;23.15;;;;;;;;;;4881910;29;20029;-91
2021/10/28 05:15:09;;;;;;;41.78;23.77;;;;;;;;;;4897378;29;20032;-92
2021/10/28 05:17:35;;;;;;;34.35;22.30;;;;;;;;;;4901375;29;20033;-92
2021/10/28 05:20:03;;;;;;;35.53;24.23;;;;;;;;;;4897974;29;20032;-92
2021/10/28 05:22:30;;;;;;;35.30;24.00;;;;;;;;;;4881437;29;20045;-92
2021/10/28 05:24:56;;;;;;;41.95;25.48;;;;;;;;;;4899226;29;20461;-89
2021/10/28 05:27:22;;;;;;;39.30;27.48;;;;;;;;;;4881515;29;20063;-92
2021/10/28 05:29:49;;;;;;;44.55;28.10;;;;;;;;;;4880957;29;20112;-92
2021/10/28 05:32:15;;;;;;;48.28;30.67;;;;;;;;;;4896947;29;20072;-92
2021/10/28 05:34:42;;;;;;;56.58;33.50;;;;;;;;;;4881580;29;20403;-91
2021/10/28 05:37:08;;;;;;;58.60;35.35;;;;;;;;;;4881722;29;20670;-90
2021/10/28 05:39:34;;;;;;;64.53;37.60;;;;;;;;;;4898219;29;20037;-92
2021/10/28 05:42:00;;;;;;;54.10;33.65;;;;;;;;;;4880614;29;20115;-92
2021/10/28 05:44:26;;;;;;;57.95;35.38;;;;;;;;;;4896755;29;20153;-92
2021/10/28 05:46:52;;;;;;;52.20;33.05;;;;;;;;;;4881719;29;20100;-92
2021/10/28 05:49:18;;;;;;;55.00;36.00;;;;;;;;;;4885136;29;20032;-91
2021/10/28 05:51:46;;;;;;;53.20;35.30;;;;;;;;;;4885120;29;20035;-91
2021/10/28 05:54:13;;;;;;;53.10;36.78;;;;;;;;;;4885425;29;20092;-91
2021/10/28 05:56:39;;;;;;;58.85;36.33;;;;;;;;;;4900837;29;20035;-92
2021/10/28 05:59:05;;;;;;;57.83;36.20;;;;;;;;;;4900854;29;20068;-91
2021/10/28 06:01:31;;;;;;;63.22;39.55;;;;;;;;;;4899701;29;20446;-91
2021/10/28 06:03:57;;;;;;;55.42;35.95;;;;;;;;;;4900699;29;20190;-92
2021/10/28 06:06:23;;;;;;;58.05;37.58;;;;;;;;;;4900688;29;20032;-91
2021/10/28 06:08:49;;;;;;;57.80;36.00;;;;;;;;;;4902020;29;20028;-90
2021/10/28 06:11:16;;;;;;;60.33;37.17;;;;;;;;;;4901527;29;20021;-90
2021/10/28 06:13:45;;;;;;;62.28;39.55;;;;;;;;;;4884731;29;20036;-90
2021/10/28 06:16:12;;;;;;;75.85;45.03;;;;;;;;;;4884894;29;20027;-91
2021/10/28 06:18:41;;;;;;;95.00;53.90;;;;;;;;;;4884740;29;20029;-90
2021/10/28 06:21:07;;;;;;;123.18;63.03;;;;;;;;;;4884126;29;20060;-90
2021/10/28 06:23:33;;;;;;;123.18;65.43;;;;;;;;;;4899954;29;20502;-90
2021/10/28 06:25:59;;;;;;;113.03;61.42;;;;;;;;;;4884098;29;20031;-90
2021/10/28 06:28:25;;;;;;;115.88;62.20;;;;;;;;;;4884500;29;20043;-90
2021/10/28 06:30:51;;;;;;;106.53;61.55;;;;;;;;;;4899941;29;20073;-91
2021/10/28 06:33:23;;;;;;;118.32;61.15;;;;;;;;;;4900068;29;20035;-90
2021/10/28 06:35:49;;;;;;;92.22;54.75;;;;;;;;;;4900739;29;20024;-90
2021/10/28 06:38:15;;;;;;;95.13;56.35;;;;;;;;;;4901002;29;20032;-91
2021/10/28 06:40:41;;;;;;;92.78;54.25;;;;;;;;;;4900457;29;20029;-91
2021/10/28 06:43:08;;;;;;;88.55;52.50;;;;;;;;;;4884219;29;20099;-91
2021/10/28 06:45:34;;;;;;;86.70;52.22;;;;;;;;;;4884932;29;20063;-92
2021/10/28 06:48:00;;;;;;;90.47;50.47;;;;;;;;;;4884038;29;20039;-91
2021/10/28 06:50:29;;;;;;;79.18;50.47;;;;;;;;;;4900901;29;20036;-90
2021/10/28 07:03:32;;;;;;;67.80;44.20;;;;;;;;;;4900498;29;20064;-91
2021/10/28 07:06:03;;;;;;;72.32;43.97;;;;;;;;;;4899508;29;20033;-91
2021/10/28 07:08:30;;;;;;;68.05;44.55;;;;;;;;;;4899287;29;20403;-91
2021/10/28 07:10:59;;;;;;;66.70;42.83;;;;;;;;;;4899183;29;20446;-91
2021/10/28 07:13:29;;;;;;;67.85;42.92;;;;;;;;;;4900635;29;20087;-90
2021/10/28 07:23:48;;;;;;;62.30;41.08;;;;;;;;;;4900028;29;20045;-91
2021/10/28 07:34:25;;;;;;;54.15;36.58;;;;;;;;;;4900272;29;20056;-91
2021/10/28 07:58:49;;;;;;;40.63;28.27;;;;;;;;;;4900311;29;20040;-92
2021/10/28 08:14:59;;;;;;;39.90;29.40;;;;;;;;;;4899882;29;20047;-92
2021/10/28 08:20:33;;;;;;;39.72;27.73;;;;;;;;;;4900019;29;20044;-91
2021/10/28 08:23:06;;;;;;;35.72;26.50;;;;;;;;;;4898397;29;20135;-90
2021/10/28 08:31:02;;;;;;;34.47;26.85;;;;;;;;;;4900107;29;20035;-90
2021/10/28 08:33:28;;;;;;;34.42;25.88;;;;;;;;;;4898421;29;20490;-90
2021/10/28 08:36:02;;;;;;;33.70;26.88;;;;;;;;;;4898220;29;20028;-91
2021/10/28 08:38:28;;;;;;;34.08;25.55;;;;;;;;;;4898415;29;20033;-90
2021/10/28 08:40:55;;;;;;;33.83;25.58;;;;;;;;;;4898721;29;20036;-90
2021/10/28 08:43:21;;;;;;;30.50;24.00;;;;;;;;;;4897749;29;20398;-91
2021/10/28 08:45:49;;;;;;;32.58;25.27;;;;;;;;;;4882846;29;20032;-90
2021/10/28 08:48:17;;;;;;;33.83;26.02;;;;;;;;;;4868906;29;20048;-90
2021/10/28 08:50:49;;;;;;;32.63;24.25;;;;;;;;;;4900141;29;20048;-90
2021/10/28 08:53:44;;;;;;;34.83;25.38;;;;;;;;;;4883483;29;20390;-90
2021/10/28 09:26:50;;;;;;;35.97;25.65;;;;;;;;;;4901490;29;20044;-90
2021/10/28 09:29:41;;;;;;;33.10;26.08;;;;;;;;;;4883001;29;20551;-90
2021/10/28 09:32:19;;;;;;;34.55;26.52;;;;;;;;;;4899381;29;20029;-91
2021/10/28 09:43:52;;;;;;;35.08;27.33;;;;;;;;;;4901086;29;20035;-91
2021/10/28 09:51:31;;;;;;;31.85;25.35;;;;;;;;;;4900943;29;20029;-90
2021/10/28 09:54:26;;;;;;;36.22;25.73;;;;;;;;;;4900208;29;20164;-91
2021/10/28 09:59:44;;;;;;;34.78;26.50;;;;;;;;;;4899540;29;20043;-92
2021/10/28 10:03:08;;;;;;;36.70;26.75;;;;;;;;;;4899613;29;20091;-89
2021/10/28 10:05:18;;;;;;;34.63;26.20;;;;;;;;;;4894702;29;20119;-91
2021/10/28 10:07:45;;;;;;;33.50;24.10;;;;;;;;;;4897989;29;20557;-91
2021/10/28 10:10:14;;;;;;;30.17;22.60;;;;;;;;;;4899195;29;20033;-90
2021/10/28 10:12:42;;;;;;;30.00;24.42;;;;;;;;;;4898583;29;20107;-91
2021/10/28 10:15:09;;;;;;;30.98;23.90;;;;;;;;;;4899824;29;20478;-91
2021/10/28 10:17:35;;;;;;;31.73;24.33;;;;;;;;;;4899104;29;20028;-90
2021/10/28 10:20:08;;;;;;;30.27;23.50;;;;;;;;;;4898255;29;20486;-89
2021/10/28 10:25:22;;;;;;;30.23;22.30;;;;;;;;;;4898526;29;20029;-90
2021/10/28 12:15:13;;;;;;;19.08;15.13;;;;;;;;;;4901922;29;20121;-89
2021/10/28 12:57:05;;;;;;;23.97;17.27;;;;;;;;;;4894838;29;20092;-91
2021/10/28 13:52:05;;;;;;;21.42;16.85;;;;;;;;;;4898701;29;20084;-91
2021/10/28 13:54:12;;;;;;;19.92;15.43;;;;;;;;;;4890306;29;20031;-90
2021/10/28 14:19:10;;;;;;;17.58;14.13;;;;;;;;;;4902463;29;20111;-91
2021/10/28 14:29:28;;;;;;;19.73;16.30;;;;;;;;;;4901622;29;20028;-91
2021/10/28 15:29:53;;;;;;;21.38;17.02;;;;;;;;;;4896948;29;20066;-90
2021/10/28 15:35:28;;;;;;;20.95;17.25;;;;;;;;;;4901716;29;20035;-90
2021/10/28 15:56:43;;;;;;;22.45;16.38;;;;;;;;;;4901514;29;20100;-91
2021/10/28 16:23:20;;;;;;;21.75;16.98;;;;;;;;;;4901091;29;20094;-91
2021/10/28 16:25:46;;;;;;;21.70;17.38;;;;;;;;;;4883628;29;20028;-89
2021/10/28 16:28:16;;;;;;;21.98;17.58;;;;;;;;;;4899042;29;20103;-90
2021/10/28 16:30:44;;;;;;;22.45;17.15;;;;;;;;;;4882928;29;20141;-90
2021/10/28 16:33:10;;;;;;;22.15;17.75;;;;;;;;;;4882965;29;20020;-90
2021/10/28 16:35:39;;;;;;;20.95;17.85;;;;;;;;;;4900372;29;20069;-89
2021/10/28 16:38:07;;;;;;;29.88;23.63;;;;;;;;;;4883758;29;20088;-90
2021/10/28 16:40:33;;;;;;;26.35;19.27;;;;;;;;;;4882955;29;20036;-90
2021/10/28 16:43:17;;;;;;;22.23;17.88;;;;;;;;;;4899534;29;20028;-90
2021/10/28 16:45:47;;;;;;;23.98;19.15;;;;;;;;;;4882951;29;20060;-91
2021/10/28 16:48:14;;;;;;;27.60;20.50;;;;;;;;;;4882751;29;20040;-90
2021/10/28 16:50:40;;;;;;;25.95;20.20;;;;;;;;;;4899507;29;20104;-90
2021/10/28 16:53:08;;;;;;;27.42;20.17;;;;;;;;;;4898310;29;20024;-90
2021/10/28 16:55:48;;;;;;;26.60;21.58;;;;;;;;;;4897945;29;20032;-90
2021/10/28 16:58:14;;;;;;;26.65;21.30;;;;;;;;;;4881773;29;20028;-91
2021/10/28 17:00:40;;;;;;;26.98;20.90;;;;;;;;;;4882261;29;20056;-90
2021/10/28 17:03:06;;;;;;;28.08;21.65;;;;;;;;;;4898160;29;20402;-91
2021/10/28 17:05:32;;;;;;;27.05;22.58;;;;;;;;;;4899281;29;20028;-91
2021/10/28 17:07:58;;;;;;;26.33;22.58;;;;;;;;;;4898539;29;20025;-90
2021/10/28 17:10:24;;;;;;;28.35;22.50;;;;;;;;;;4896164;29;20031;-91
2021/10/28 17:12:50;;;;;;;25.45;22.00;;;;;;;;;;4881239;29;20047;-91
2021/10/28 17:15:17;;;;;;;29.52;23.25;;;;;;;;;;4883887;29;20024;-91
2021/10/28 17:17:44;;;;;;;32.20;23.60;;;;;;;;;;4882745;29;20487;-90
2021/10/28 17:20:10;;;;;;;29.60;23.95;;;;;;;;;;4900393;29;20032;-91
2021/10/28 17:22:37;;;;;;;30.38;24.13;;;;;;;;;;4882793;29;20132;-91
2021/10/28 17:25:08;;;;;;;28.35;22.98;;;;;;;;;;4882258;29;20031;-91
2021/10/28 17:27:34;;;;;;;31.50;25.58;;;;;;;;;;4883062;29;20033;-90
2021/10/28 17:30:04;;;;;;;30.83;24.42;;;;;;;;;;4901769;29;20040;-90
2021/10/28 17:32:30;;;;;;;32.35;25.33;;;;;;;;;;4899667;29;20206;-91
2021/10/28 17:34:57;;;;;;;39.30;29.15;;;;;;;;;;4882471;29;20574;-90
2021/10/28 17:37:24;;;;;;;31.80;24.30;;;;;;;;;;4883098;29;20407;-90
2021/10/28 17:39:50;;;;;;;31.58;25.33;;;;;;;;;;4882059;29;20028;-91
2021/10/28 17:42:17;;;;;;;30.83;25.70;;;;;;;;;;4897638;29;20050;-90
2021/10/28 17:44:54;;;;;;;35.35;26.65;;;;;;;;;;4901064;29;20035;-90
2021/10/28 17:47:20;;;;;;;37.08;26.52;;;;;;;;;;4902245;29;20172;-90
2021/10/28 17:49:46;;;;;;;34.53;25.77;;;;;;;;;;4900831;29;20076;-90
2021/10/28 17:52:13;;;;;;;33.83;27.00;;;;;;;;;;4885686;29;20112;-90
2021/10/28 17:54:39;;;;;;;36.25;27.63;;;;;;;;;;4885772;29;20061;-90
2021/10/28 17:57:05;;;;;;;35.95;27.60;;;;;;;;;;4885856;29;20040;-91
2021/10/28 17:59:32;;;;;;;42.65;30.50;;;;;;;;;;4902957;29;20036;-92
2021/10/28 18:02:00;;;;;;;34.35;28.67;;;;;;;;;;4901080;29;20033;-90
2021/10/28 18:04:26;;;;;;;33.50;26.88;;;;;;;;;;4902041;29;20032;-90
2021/10/28 18:06:52;;;;;;;36.35;28.00;;;;;;;;;;4901287;29;20634;-90
2021/10/28 18:09:22;;;;;;;34.40;26.73;;;;;;;;;;4900816;29;20032;-90
2021/10/28 18:11:49;;;;;;;33.78;28.38;;;;;;;;;;4886070;29;20040;-91
2021/10/28 18:14:31;;;;;;;35.67;28.33;;;;;;;;;;4885419;29;20401;-90
2021/10/28 18:17:50;;;;;;;35.67;29.17;;;;;;;;;;4885519;29;20029;-90
2021/10/28 18:20:16;;;;;;;35.30;27.08;;;;;;;;;;4863108;29;20515;-90
2021/10/28 18:23:11;;;;;;;37.45;28.80;;;;;;;;;;4882545;29;20052;-89
2021/10/28 18:25:37;;;;;;;35.28;28.95;;;;;;;;;;4872278;29;20088;-91
2021/10/28 18:28:13;;;;;;;36.45;28.05;;;;;;;;;;4884705;29;20036;-90
2021/10/28 18:30:39;;;;;;;37.53;28.95;;;;;;;;;;4886273;29;20028;-91
2021/10/28 18:33:13;;;;;;;40.28;29.15;;;;;;;;;;4902440;29;20036;-90
2021/10/28 18:35:41;;;;;;;38.22;29.85;;;;;;;;;;4900476;29;20107;-90
2021/10/28 18:38:09;;;;;;;40.70;30.25;;;;;;;;;;4900010;29;20064;-91
2021/10/28 18:40:41;;;;;;;36.50;29.20;;;;;;;;;;4900357;29;20443;-91
2021/10/28 18:43:18;;;;;;;36.00;28.80;;;;;;;;;;4900917;29;20032;-90
2021/10/28 18:45:44;;;;;;;37.70;28.77;;;;;;;;;;4897666;29;20426;-90
2021/10/28 18:48:10;;;;;;;34.88;27.95;;;;;;;;;;4899947;29;20039;-90
2021/10/28 18:50:37;;;;;;;37.60;29.67;;;;;;;;;;4884433;29;20064;-90
2021/10/28 18:53:03;;;;;;;38.72;29.42;;;;;;;;;;4884010;29;20055;-90
2021/10/28 18:55:29;;;;;;;38.00;28.63;;;;;;;;;;4884623;29;20061;-90
2021/10/28 18:57:56;;;;;;;38.22;28.80;;;;;;;;;;4884368;29;20038;-91
2021/10/28 19:00:22;;;;;;;40.88;29.88;;;;;;;;;;4899899;29;20116;-90
2021/10/28 19:02:48;;;;;;;39.10;28.67;;;;;;;;;;4900325;29;20458;-90
2021/10/28 19:05:14;;;;;;;39.88;30.50;;;;;;;;;;4901156;29;20035;-89
2021/10/28 19:07:40;;;;;;;38.53;28.80;;;;;;;;;;4899849;29;20025;-90
2021/10/28 19:10:07;;;;;;;38.70;28.85;;;;;;;;;;4899104;29;20490;-89
2021/10/28 19:12:34;;;;;;;37.80;29.63;;;;;;;;;;4899646;29;20024;-90
2021/10/28 19:15:00;;;;;;;34.17;28.17;;;;;;;;;;4900208;29;20487;-89
2021/10/28 19:17:26;;;;;;;38.25;29.08;;;;;;;;;;4901143;29;20033;-90
2021/10/28 19:19:52;;;;;;;37.25;28.83;;;;;;;;;;4883723;29;20120;-90
2021/10/28 19:22:18;;;;;;;37.13;28.88;;;;;;;;;;4900847;29;20044;-90
2021/10/28 19:24:45;;;;;;;36.05;27.98;;;;;;;;;;4883328;29;20036;-89
2021/10/28 19:27:11;;;;;;;38.88;27.52;;;;;;;;;;4884110;29;20036;-90
2021/10/28 19:29:43;;;;;;;36.08;28.80;;;;;;;;;;4884806;29;20036;-90
2021/10/28 19:32:16;;;;;;;36.20;28.67;;;;;;;;;;4889170;29;20025;-90
2021/10/28 19:34:43;;;;;;;36.55;28.13;;;;;;;;;;4884774;29;20084;-90
2021/10/28 19:40:02;;;;;;;33.83;27.07;;;;;;;;;;4909523;29;20028;-90
2021/10/28 19:45:02;;;;;;;36.95;29.00;;;;;;;;;;4885875;29;20025;-90
2021/10/28 19:47:48;;;;;;;34.75;27.50;;;;;;;;;;4914904;29;20501;-90
2021/10/28 19:50:14;;;;;;;38.67;30.27;;;;;;;;;;4902619;29;20039;-92
2021/10/28 19:52:41;;;;;;;35.78;27.65;;;;;;;;;;4906648;29;20020;-92
2021/10/28 19:55:08;;;;;;;38.25;29.48;;;;;;;;;;4907071;29;20478;-91
2021/10/28 19:57:43;;;;;;;38.63;29.67;;;;;;;;;;4905252;29;20017;-91
2021/10/28 20:03:07;;;;;;;36.17;29.25;;;;;;;;;;4902980;29;20036;-90
2021/10/28 20:05:44;;;;;;;36.85;29.67;;;;;;;;;;4903236;29;20033;-90
2021/10/28 20:21:28;;;;;;;37.08;28.52;;;;;;;;;;4903458;29;20115;-89
2021/10/28 20:23:54;;;;;;;37.42;29.25;;;;;;;;;;4902233;29;20029;-90
2021/10/28 20:26:21;;;;;;;36.63;28.35;;;;;;;;;;4902760;29;20036;-90
2021/10/28 20:28:55;;;;;;;36.42;28.70;;;;;;;;;;4903348;29;20035;-91
2021/10/28 20:31:23;;;;;;;37.03;29.20;;;;;;;;;;4903711;29;20032;-91
2021/10/28 20:34:15;;;;;;;37.65;28.88;;;;;;;;;;4902430;29;20024;-91
2021/10/28 20:39:24;;;;;;;38.53;29.13;;;;;;;;;;4903848;29;20063;-90
2021/10/28 20:41:51;;;;;;;35.90;28.75;;;;;;;;;;4901580;29;20028;-89
2021/10/28 20:44:17;;;;;;;37.55;29.30;;;;;;;;;;4902312;29;20029;-90
2021/10/28 20:46:43;;;;;;;40.50;30.67;;;;;;;;;;4902088;29;20039;-90
2021/10/28 20:49:11;;;;;;;39.70;30.02;;;;;;;;;;4902012;29;20040;-92
2021/10/28 20:51:39;;;;;;;37.85;30.05;;;;;;;;;;4901180;29;20140;-89
2021/10/28 20:54:05;;;;;;;40.92;30.77;;;;;;;;;;4900866;29;20051;-89
2021/10/28 20:56:32;;;;;;;38.17;29.95;;;;;;;;;;4902147;29;20033;-90
2021/10/28 20:58:58;;;;;;;36.75;28.60;;;;;;;;;;4901176;29;20033;-91
2021/10/28 21:01:24;;;;;;;37.67;28.60;;;;;;;;;;4902116;29;20108;-91
2021/10/28 21:03:52;;;;;;;41.78;30.42;;;;;;;;;;4901830;29;20033;-91
2021/10/28 21:06:19;;;;;;;38.00;28.20;;;;;;;;;;4901506;29;20032;-89
2021/10/28 21:08:45;;;;;;;37.97;28.55;;;;;;;;;;4900670;29;20275;-89
2021/10/28 21:11:11;;;;;;;37.38;27.88;;;;;;;;;;4903058;29;20025;-90
2021/10/28 21:13:37;;;;;;;39.28;28.85;;;;;;;;;;4900179;29;20040;-91
2021/10/28 21:16:03;;;;;;;37.25;28.50;;;;;;;;;;4900924;29;20025;-90
2021/10/28 21:18:32;;;;;;;39.10;28.58;;;;;;;;;;4899662;29;20029;-91
2021/10/28 21:20:59;;;;;;;35.67;27.17;;;;;;;;;;4900417;29;20029;-90
2021/10/28 21:23:27;;;;;;;38.15;27.27;;;;;;;;;;4901041;29;20176;-90
2021/10/28 21:25:53;;;;;;;35.92;27.50;;;;;;;;;;4900641;29;20032;-90
2021/10/28 21:28:19;;;;;;;36.75;26.75;;;;;;;;;;4901115;29;20037;-91
2021/10/28 21:30:46;;;;;;;39.35;28.98;;;;;;;;;;4884595;29;20035;-91
2021/10/28 21:33:13;;;;;;;37.25;27.35;;;;;;;;;;4883650;29;20033;-90
2021/10/28 21:35:42;;;;;;;34.47;26.90;;;;;;;;;;4886361;29;20020;-90
2021/10/28 21:38:08;;;;;;;34.45;27.55;;;;;;;;;;4883220;29;20033;-90
2021/10/28 21:40:35;;;;;;;35.92;27.65;;;;;;;;;;4884078;29;20033;-90
2021/10/28 21:43:01;;;;;;;34.00;26.58;;;;;;;;;;4882807;29;20044;-90
2021/10/28 21:45:28;;;;;;;33.92;26.90;;;;;;;;;;4883214;29;20064;-90
2021/10/28 21:47:54;;;;;;;39.95;28.42;;;;;;;;;;4882630;29;20032;-90
2021/10/28 21:50:20;;;;;;;37.88;28.60;;;;;;;;;;4882659;29;20020;-89
2021/10/28 21:52:54;;;;;;;36.13;27.75;;;;;;;;;;4883049;29;20030;-90
2021/10/28 21:55:32;;;;;;;35.95;27.40;;;;;;;;;;4883252;29;20021;-90
2021/10/28 22:00:49;;;;;;;38.55;28.40;;;;;;;;;;4899640;29;20083;-89
2021/10/28 22:25:05;;;;;;;39.58;30.25;;;;;;;;;;4879890;29;20096;-88
2021/10/28 22:27:33;;;;;;;41.58;30.70;;;;;;;;;;4862801;29;20112;-89
2021/10/28 22:30:02;;;;;;;42.88;31.83;;;;;;;;;;4864365;29;20025;-90
2021/10/28 22:32:30;;;;;;;39.92;30.95;;;;;;;;;;4866195;29;20024;-89
2021/10/28 22:34:57;;;;;;;42.25;32.15;;;;;;;;;;4866325;29;20376;-89
2021/10/28 22:37:40;;;;;;;42.55;31.67;;;;;;;;;;4866231;29;20056;-89
2021/10/28 22:40:16;;;;;;;44.13;32.40;;;;;;;;;;4865995;29;20108;-89
2021/10/28 22:42:43;;;;;;;41.75;31.38;;;;;;;;;;4865517;29;20040;-89
2021/10/28 22:45:28;;;;;;;40.55;30.95;;;;;;;;;;4866066;29;20398;-89
2021/10/28 22:47:55;;;;;;;42.60;31.55;;;;;;;;;;4881372;29;20028;-89
2021/10/28 22:50:21;;;;;;;42.15;30.63;;;;;;;;;;4865771;29;20116;-88
2021/10/28 22:52:48;;;;;;;46.00;31.75;;;;;;;;;;4880850;29;20017;-89
2021/10/28 22:55:15;;;;;;;42.55;32.33;;;;;;;;;;4865687;29;20051;-89
2021/10/28 23:00:22;;;;;;;43.65;32.72;;;;;;;;;;4882534;29;20539;-89
2021/10/28 23:21:28;;;;;;;46.63;32.30;;;;;;;;;;4873948;29;20131;-89
2021/10/28 23:23:54;;;;;;;41.90;31.20;;;;;;;;;;4881748;29;20040;-89
2021/10/28 23:26:20;;;;;;;44.05;32.85;;;;;;;;;;4882283;29;20033;-89
2021/10/28 23:28:46;;;;;;;44.05;32.63;;;;;;;;;;4882759;29;20123;-89
2021/10/28 23:31:12;;;;;;;44.55;32.47;;;;;;;;;;4867593;29;20024;-89
2021/10/28 23:33:38;;;;;;;44.10;32.28;;;;;;;;;;4867750;29;20414;-88
2021/10/28 23:36:08;;;;;;;46.15;33.22;;;;;;;;;;4871237;29;20032;-89
2021/10/28 23:38:34;;;;;;;45.08;31.65;;;;;;;;;;4885061;29;20025;-89
2021/10/28 23:41:00;;;;;;;41.60;30.98;;;;;;;;;;4864985;29;20037;-89
2021/10/28 23:43:26;;;;;;;44.03;32.47;;;;;;;;;;4865571;29;20563;-90
2021/10/28 23:45:53;;;;;;;42.13;31.23;;;;;;;;;;4865867;29;20037;-89
2021/10/28 23:48:19;;;;;;;42.10;30.73;;;;;;;;;;4881450;29;20487;-89
2021/10/28 23:50:46;;;;;;;44.40;33.30;;;;;;;;;;4880682;29;20029;-89
2021/10/28 23:53:12;;;;;;;42.03;31.20;;;;;;;;;;4880881;29;20025;-89
2021/10/28 23:55:38;;;;;;;42.13;31.52;;;;;;;;;;4881019;29;20056;-91
2021/10/28 23:58:06;;;;;;;42.95;31.42;;;;;;;;;;4880761;29;20479;-89
